createdAt,value
2023-06-19T00:00:53.603Z,38.49
2023-06-19T00:03:22.942Z,38.86
2023-06-19T00:05:55.868Z,39.31
2023-06-19T00:08:30.635Z,39.32
2023-06-19T00:11:01.437Z,39.06
2023-06-19T00:13:35.201Z,39.65
2023-06-19T00:16:08.191Z,39.78
2023-06-19T00:18:42.228Z,39.96
2023-06-19T00:21:10.590Z,39.80
2023-06-19T00:23:41.011Z,39.90
2023-06-19T00:26:18.421Z,40.38
2023-06-19T00:28:46.778Z,40.55
2023-06-19T00:31:17.894Z,40.61
2023-06-19T00:33:48.491Z,40.78
2023-06-19T00:36:28.249Z,40.77
2023-06-19T00:39:05.824Z,40.92
2023-06-19T00:41:35.957Z,41.16
2023-06-19T00:44:04.024Z,41.87
2023-06-19T00:46:34.495Z,42.16
2023-06-19T00:49:06.837Z,41.90
2023-06-19T00:51:44.711Z,42.11
2023-06-19T00:54:16.823Z,41.40
2023-06-19T00:56:47.216Z,41.50
2023-06-19T00:59:21.998Z,41.66
2023-06-19T01:01:52.599Z,42.08
2023-06-19T01:04:24.052Z,42.30
2023-06-19T01:07:14.777Z,42.71
2023-06-19T01:09:49.162Z,42.29
2023-06-19T01:12:29.241Z,42.28
2023-06-19T01:15:02.570Z,42.34
2023-06-19T01:17:31.433Z,42.11
2023-06-19T01:20:12.520Z,42.76
2023-06-19T01:22:49.506Z,42.60
2023-06-19T01:25:21.197Z,43.03
2023-06-19T01:27:49.432Z,42.83
2023-06-19T01:30:19.356Z,43.55
2023-06-19T01:32:57.206Z,43.12
2023-06-19T01:35:32.018Z,43.06
2023-06-19T01:38:03.079Z,43.85
2023-06-19T01:40:36.531Z,43.56
2023-06-19T01:43:05.886Z,43.78
2023-06-19T01:45:34.278Z,43.81
2023-06-19T01:48:05.146Z,44.77
2023-06-19T01:50:35.848Z,44.70
2023-06-19T01:53:08.520Z,45.00
2023-06-19T01:55:38.987Z,45.33
2023-06-19T01:58:18.576Z,45.09
2023-06-19T02:00:46.910Z,45.20
2023-06-19T02:03:20.120Z,45.50
2023-06-19T02:05:53.477Z,45.64
2023-06-19T02:08:22.790Z,45.75
2023-06-19T02:10:53.512Z,45.92
2023-06-19T02:13:21.716Z,46.39
2023-06-19T02:15:52.445Z,46.33
2023-06-19T02:18:21.461Z,46.40
2023-06-19T02:20:54.949Z,46.80
2023-06-19T02:23:26.164Z,46.85
2023-06-19T02:25:54.108Z,46.75
2023-06-19T02:28:25.337Z,46.98
2023-06-19T02:31:00.221Z,46.80
2023-06-19T02:33:29.635Z,47.47
2023-06-19T02:36:05.513Z,47.53
2023-06-19T02:38:36.890Z,47.76
2023-06-19T02:41:04.935Z,47.51
2023-06-19T02:43:35.696Z,48.00
2023-06-19T02:46:05.355Z,47.84
2023-06-19T02:48:35.904Z,48.10
2023-06-19T02:51:03.892Z,48.50
2023-06-19T02:53:32.078Z,48.59
2023-06-19T02:56:03.161Z,48.98
2023-06-19T02:58:35.522Z,48.87
2023-06-19T03:01:10.006Z,48.92
2023-06-19T03:03:41.260Z,49.00
2023-06-19T03:06:16.364Z,48.52
2023-06-19T03:08:48.341Z,48.85
2023-06-19T03:11:21.432Z,49.03
2023-06-19T03:13:59.851Z,49.87
2023-06-19T03:16:27.948Z,49.22
2023-06-19T03:19:01.379Z,49.15
2023-06-19T03:21:32.152Z,49.12
2023-06-19T03:24:02.893Z,49.22
2023-06-19T03:26:37.563Z,49.09
2023-06-19T03:29:07.864Z,49.51
2023-06-19T03:31:42.872Z,49.28
2023-06-19T03:34:13.579Z,49.73
2023-06-19T03:36:41.577Z,50.09
2023-06-19T03:39:11.491Z,49.92
2023-06-19T03:41:41.133Z,49.94
2023-06-19T03:44:11.920Z,50.04
2023-06-19T03:46:44.291Z,50.26
2023-06-19T03:49:21.081Z,50.22
2023-06-19T03:51:50.701Z,49.53
2023-06-19T03:54:22.699Z,49.97
2023-06-19T03:56:57.180Z,50.18
2023-06-19T03:59:25.234Z,50.18
2023-06-19T04:01:57.996Z,50.93
2023-06-19T04:04:27.794Z,50.23
2023-06-19T04:07:00.426Z,50.73
2023-06-19T04:09:28.574Z,50.89
2023-06-19T04:11:57.909Z,50.75
2023-06-19T04:14:31.364Z,51.21
2023-06-19T04:17:00.758Z,50.98
2023-06-19T04:19:36.745Z,50.78
2023-06-19T04:22:07.380Z,51.18
2023-06-19T04:24:35.510Z,50.53
2023-06-19T04:27:11.143Z,50.93
2023-06-19T04:29:48.757Z,51.39
2023-06-19T04:32:19.405Z,51.88
2023-06-19T04:34:48.270Z,51.70
2023-06-19T04:37:20.473Z,51.32
2023-06-19T04:39:48.821Z,52.16
2023-06-19T04:42:21.897Z,52.54
2023-06-19T04:44:50.403Z,52.76
2023-06-19T04:47:22.871Z,52.78
2023-06-19T04:49:50.851Z,52.74
2023-06-19T04:52:29.889Z,52.79
2023-06-19T04:54:57.862Z,53.27
2023-06-19T04:57:31.217Z,53.41
2023-06-19T05:00:05.271Z,53.65
2023-06-19T05:02:34.076Z,53.35
2023-06-19T05:05:05.689Z,53.14
2023-06-19T05:07:33.962Z,52.85
2023-06-19T05:10:05.107Z,52.61
2023-06-19T05:12:34.788Z,52.63
2023-06-19T05:15:03.615Z,52.65
2023-06-19T05:17:31.784Z,53.33
2023-06-19T05:20:00.206Z,52.54
2023-06-19T05:22:28.369Z,53.08
2023-06-19T05:24:56.559Z,53.00
2023-06-19T05:27:24.854Z,53.34
2023-06-19T05:29:54.523Z,53.24
2023-06-19T05:32:22.944Z,53.15
2023-06-19T05:34:51.307Z,52.39
2023-06-19T05:37:19.781Z,52.30
2023-06-19T05:39:48.041Z,52.02
2023-06-19T05:42:16.195Z,52.04
2023-06-19T05:44:44.481Z,52.11
2023-06-19T05:47:14.105Z,51.10
2023-06-19T05:49:42.448Z,51.59
2023-06-19T05:52:10.746Z,51.20
2023-06-19T05:54:38.845Z,51.66
2023-06-19T05:57:07.914Z,51.43
2023-06-19T05:59:36.140Z,50.80
2023-06-19T06:02:05.135Z,51.44
2023-06-19T06:04:37.815Z,51.31
2023-06-19T06:07:06.725Z,50.92
2023-06-19T06:09:35.391Z,51.27
2023-06-19T06:12:03.558Z,51.22
2023-06-19T06:14:32.138Z,51.27
2023-06-19T06:17:00.739Z,51.58
2023-06-19T06:19:29.975Z,52.19
2023-06-19T06:22:01.173Z,52.26
2023-06-19T06:24:29.440Z,52.30
2023-06-19T06:26:57.689Z,52.42
2023-06-19T06:29:25.770Z,52.86
2023-06-19T06:31:54.140Z,52.96
2023-06-19T06:34:22.678Z,53.27
2023-06-19T06:37:05.061Z,53.03
2023-06-19T06:39:36.194Z,53.04
2023-06-19T06:42:04.491Z,53.51
2023-06-19T06:44:33.256Z,53.04
2023-06-19T06:47:02.359Z,53.18
2023-06-19T06:49:30.500Z,53.15
2023-06-19T06:51:58.655Z,53.71
2023-06-19T06:54:27.130Z,54.00
2023-06-19T06:56:59.584Z,54.27
2023-06-19T06:59:28.335Z,54.42
2023-06-19T07:01:57.706Z,54.27
2023-06-19T07:04:25.975Z,53.86
2023-06-19T07:06:54.044Z,53.49
2023-06-19T07:09:23.436Z,53.47
2023-06-19T07:11:53.732Z,53.17
2023-06-19T07:14:24.046Z,52.86
2023-06-19T07:16:52.493Z,53.10
2023-06-19T07:19:20.814Z,52.44
2023-06-19T07:21:49.202Z,52.00
2023-06-19T07:24:17.517Z,51.83
2023-06-19T07:26:45.927Z,51.00
2023-06-19T07:29:14.315Z,50.33
2023-06-19T07:31:44.641Z,49.79
2023-06-19T07:34:13.047Z,49.07
2023-06-19T07:36:41.230Z,48.43
2023-06-19T07:39:09.649Z,48.20
2023-06-19T07:41:37.961Z,47.82
2023-06-19T07:44:06.519Z,46.52
2023-06-19T07:46:34.817Z,46.02
2023-06-19T07:49:04.337Z,46.04
2023-06-19T07:51:33.039Z,46.13
2023-06-19T07:54:01.308Z,46.63
2023-06-19T07:56:29.716Z,47.23
2023-06-19T07:58:58.513Z,47.49
2023-06-19T08:01:26.621Z,47.61
2023-06-19T08:03:55.117Z,47.77
2023-06-19T08:06:24.707Z,48.26
2023-06-19T08:08:53.417Z,48.42
2023-06-19T08:11:21.859Z,48.39
2023-06-19T08:13:50.876Z,47.95
2023-06-19T08:16:19.709Z,48.18
2023-06-19T08:18:48.064Z,47.16
2023-06-19T08:21:17.766Z,46.70
2023-06-19T08:23:47.253Z,45.45
2023-06-19T08:26:15.446Z,45.40
2023-06-19T08:28:44.061Z,44.70
2023-06-19T08:31:12.511Z,44.97
2023-06-19T08:33:40.681Z,45.13
2023-06-19T08:36:08.854Z,45.08
2023-06-19T08:38:36.953Z,44.41
2023-06-19T08:41:06.525Z,44.09
2023-06-19T08:43:34.717Z,43.40
2023-06-19T08:46:12.380Z,41.83
2023-06-19T08:48:41.807Z,42.07
2023-06-19T08:51:10.286Z,42.38
2023-06-19T08:53:46.962Z,40.91
2023-06-19T08:56:16.591Z,41.02
2023-06-19T08:58:44.947Z,40.68
2023-06-19T09:01:14.608Z,40.41
2023-06-19T09:03:42.778Z,40.49
2023-06-19T09:06:11.934Z,40.81
2023-06-19T09:08:40.220Z,39.88
2023-06-19T09:11:10.774Z,40.16
2023-06-19T09:13:40.902Z,40.33
2023-06-19T09:16:10.294Z,40.09
2023-06-19T09:18:47.093Z,40.13
2023-06-19T09:21:19.633Z,40.88
2023-06-19T09:23:48.949Z,40.83
2023-06-19T09:26:19.111Z,40.74
2023-06-19T09:28:51.643Z,40.05
2023-06-19T09:31:19.697Z,40.21
2023-06-19T09:33:47.987Z,39.43
2023-06-19T09:36:16.878Z,40.19
2023-06-19T09:38:44.957Z,41.48
2023-06-19T09:41:13.942Z,41.02
2023-06-19T09:43:46.051Z,40.26
2023-06-19T09:46:17.363Z,39.90
2023-06-19T09:48:47.485Z,39.40
2023-06-19T09:51:20.926Z,39.55
2023-06-19T09:53:52.155Z,39.37
2023-06-19T09:56:23.477Z,39.32
2023-06-19T09:58:54.076Z,37.75
2023-06-19T10:01:25.020Z,38.51
2023-06-19T10:04:03.602Z,37.84
2023-06-19T10:06:33.836Z,37.52
2023-06-19T10:09:10.115Z,38.11
2023-06-19T10:11:53.439Z,37.84
2023-06-19T10:14:21.963Z,37.79
2023-06-19T10:16:51.548Z,37.83
2023-06-19T10:19:23.028Z,37.99
2023-06-19T10:21:55.575Z,37.53
2023-06-19T10:24:26.194Z,37.39
2023-06-19T10:27:04.949Z,37.38
2023-06-19T10:29:41.926Z,37.64
2023-06-19T10:32:13.922Z,38.52
2023-06-19T10:34:42.584Z,37.65
2023-06-19T10:37:22.427Z,38.33
2023-06-19T10:39:50.502Z,38.79
2023-06-19T10:42:18.447Z,37.67
2023-06-19T10:44:46.658Z,37.96
2023-06-19T10:47:17.426Z,38.38
2023-06-19T10:49:45.558Z,38.34
2023-06-19T10:52:13.823Z,38.64
2023-06-19T10:54:41.849Z,38.21
2023-06-19T10:57:10.220Z,38.85
2023-06-19T10:59:40.802Z,38.57
2023-06-19T11:02:09.006Z,38.58
2023-06-19T11:04:41.633Z,38.06
2023-06-19T11:07:10.564Z,38.45
2023-06-19T11:09:38.684Z,38.14
2023-06-19T11:12:09.894Z,39.16
2023-06-19T11:14:41.155Z,39.34
2023-06-19T11:17:09.607Z,38.86
2023-06-19T11:19:39.473Z,38.12
2023-06-19T11:22:09.308Z,38.65
2023-06-19T11:24:37.663Z,38.66
2023-06-19T11:27:06.633Z,37.65
2023-06-19T11:29:36.804Z,37.42
2023-06-19T11:32:09.518Z,37.19
2023-06-19T11:34:38.979Z,36.70
2023-06-19T11:37:15.864Z,37.57
2023-06-19T11:39:46.332Z,37.13
2023-06-19T11:42:15.548Z,37.41
2023-06-19T11:44:56.055Z,36.32
2023-06-19T11:47:24.902Z,36.75
2023-06-19T11:49:53.606Z,37.03
2023-06-19T11:52:23.105Z,38.07
2023-06-19T11:54:51.413Z,38.43
2023-06-19T11:57:19.518Z,38.14
2023-06-19T11:59:48.298Z,38.04
2023-06-19T12:02:16.609Z,37.20
2023-06-19T12:04:44.858Z,37.68
2023-06-19T12:07:13.459Z,37.55
2023-06-19T12:09:44.318Z,37.10
2023-06-19T12:12:12.972Z,36.53
2023-06-19T12:14:41.462Z,36.05
2023-06-19T12:17:09.750Z,36.04
2023-06-19T12:19:37.970Z,36.67
2023-06-19T12:22:06.995Z,36.38
2023-06-19T12:24:35.184Z,35.38
2023-06-19T12:27:05.230Z,34.86
2023-06-19T12:29:33.518Z,33.94
2023-06-19T12:32:04.133Z,34.68
2023-06-19T12:34:32.328Z,34.37
2023-06-19T12:37:00.832Z,34.56
2023-06-19T12:39:28.911Z,35.14
2023-06-19T12:41:56.978Z,35.10
2023-06-19T12:44:26.778Z,35.73
2023-06-19T12:46:55.175Z,35.91
2023-06-19T12:49:23.310Z,35.56
2023-06-19T12:51:53.299Z,35.85
2023-06-19T12:54:21.614Z,36.56
2023-06-19T12:56:51.788Z,37.49
2023-06-19T12:59:20.227Z,38.35
2023-06-19T13:01:49.875Z,37.90
2023-06-19T13:04:18.433Z,36.96
2023-06-19T13:06:46.532Z,36.81
2023-06-19T13:09:14.926Z,37.80
2023-06-19T13:11:43.234Z,36.44
2023-06-19T13:14:11.356Z,36.21
2023-06-19T13:19:12.085Z,36.50
2023-06-19T13:21:40.134Z,36.61
2023-06-19T13:24:08.660Z,37.43
2023-06-19T13:26:37.267Z,37.00
2023-06-19T13:29:05.386Z,37.20
2023-06-19T13:31:35.130Z,36.41
2023-06-19T13:34:03.279Z,36.55
2023-06-19T13:36:34.000Z,35.96
2023-06-19T13:39:03.784Z,36.55
2023-06-19T13:41:33.711Z,36.75
2023-06-19T13:44:02.367Z,35.91
2023-06-19T13:46:33.019Z,35.88
2023-06-19T13:49:02.095Z,36.45
2023-06-19T13:51:30.269Z,35.95
2023-06-19T13:54:00.169Z,35.74
2023-06-19T13:56:28.399Z,37.01
2023-06-19T13:58:56.658Z,36.42
2023-06-19T14:01:26.642Z,35.27
2023-06-19T14:03:54.990Z,35.87
2023-06-19T14:06:23.486Z,35.24
2023-06-19T14:08:51.535Z,35.81
2023-06-19T14:11:21.558Z,35.88
2023-06-19T14:13:49.696Z,36.08
2023-06-19T14:16:18.058Z,36.11
2023-06-19T14:18:46.136Z,36.63
2023-06-19T14:21:14.260Z,36.13
2023-06-19T14:23:44.617Z,36.45
2023-06-19T14:26:12.938Z,35.78
2023-06-19T14:28:42.326Z,35.85
2023-06-19T14:31:10.458Z,36.22
2023-06-19T14:33:39.144Z,37.00
2023-06-19T14:36:07.347Z,36.96
2023-06-19T14:38:36.670Z,36.37
2023-06-19T14:41:05.035Z,36.81
2023-06-19T14:43:34.486Z,36.88
2023-06-19T14:46:06.384Z,36.52
2023-06-19T14:48:34.466Z,36.55
2023-06-19T14:51:03.164Z,36.68
2023-06-19T14:53:31.200Z,36.63
2023-06-19T14:55:59.291Z,36.72
2023-06-19T14:58:29.856Z,36.21
2023-06-19T15:00:59.075Z,36.42
2023-06-19T15:03:28.719Z,36.70
2023-06-19T15:05:56.951Z,36.53
2023-06-19T15:08:25.348Z,36.81
2023-06-19T15:10:53.654Z,37.35
2023-06-19T15:13:21.775Z,37.23
2023-06-19T15:15:51.966Z,37.29
2023-06-19T15:18:20.309Z,36.74
2023-06-19T15:20:50.642Z,36.53
2023-06-19T15:23:25.692Z,36.92
2023-06-19T15:25:54.987Z,36.90
2023-06-19T15:28:36.715Z,36.54
2023-06-19T15:31:14.471Z,37.01
2023-06-19T15:33:45.268Z,37.67
2023-06-19T15:36:20.076Z,37.02
2023-06-19T15:38:54.368Z,38.48
2023-06-19T15:41:28.408Z,38.27
2023-06-19T15:44:06.852Z,38.67
2023-06-19T15:46:41.365Z,38.32
2023-06-19T15:49:21.455Z,38.19
2023-06-19T15:51:51.058Z,37.56
2023-06-19T15:54:19.130Z,37.63
2023-06-19T15:56:47.335Z,36.98
2023-06-19T15:59:16.206Z,37.93
2023-06-19T16:01:44.253Z,37.84
2023-06-19T16:04:14.259Z,38.67
2023-06-19T16:06:53.652Z,38.02
2023-06-19T16:09:31.114Z,37.31
2023-06-19T16:12:02.849Z,37.36
2023-06-19T16:14:36.324Z,37.83
2023-06-19T16:17:07.830Z,38.64
2023-06-19T16:19:42.608Z,38.19
2023-06-19T16:22:12.328Z,38.73
2023-06-19T16:24:45.500Z,39.29
2023-06-19T16:27:13.662Z,39.06
2023-06-19T16:29:55.605Z,39.66
2023-06-19T16:32:33.898Z,39.37
2023-06-19T16:35:17.404Z,39.17
2023-06-19T16:37:47.552Z,39.58
2023-06-19T16:40:20.072Z,39.46
2023-06-19T16:42:52.470Z,38.76
2023-06-19T16:45:28.031Z,39.26
2023-06-19T16:47:56.430Z,39.93
2023-06-19T16:50:32.749Z,39.71
2023-06-19T16:53:06.799Z,39.94
2023-06-19T16:55:39.937Z,39.61
2023-06-19T16:58:09.078Z,40.30
2023-06-19T17:00:51.100Z,41.86
2023-06-19T17:03:24.624Z,41.89
2023-06-19T17:05:54.590Z,42.72
2023-06-19T17:08:28.447Z,43.59
2023-06-19T17:11:04.642Z,44.59
2023-06-19T17:13:37.308Z,45.80
2023-06-19T17:16:07.413Z,46.30
2023-06-19T17:18:42.417Z,46.20
2023-06-19T17:21:17.561Z,47.55
2023-06-19T17:23:56.806Z,47.20
2023-06-19T17:26:32.150Z,47.80
2023-06-19T17:29:10.452Z,48.89
2023-06-19T17:31:42.866Z,48.83
2023-06-19T17:34:15.131Z,49.13
2023-06-19T17:36:55.422Z,49.77
2023-06-19T17:39:34.204Z,49.47
2023-06-19T17:42:06.324Z,49.61
2023-06-19T17:44:34.544Z,49.81
2023-06-19T17:47:03.009Z,49.92
2023-06-19T17:49:31.101Z,50.13
2023-06-19T17:51:59.341Z,49.86
2023-06-19T17:54:27.315Z,49.78
2023-06-19T17:56:55.252Z,49.70
2023-06-19T17:59:24.777Z,49.30
2023-06-19T18:01:53.100Z,49.45
2023-06-19T18:04:21.107Z,49.63
2023-06-19T18:06:49.457Z,50.08
2023-06-19T18:09:17.513Z,50.18
2023-06-19T18:11:46.395Z,50.22
2023-06-19T18:14:14.695Z,50.36
2023-06-19T18:16:44.209Z,50.58
2023-06-19T18:19:12.281Z,50.71
2023-06-19T18:21:41.264Z,50.69
2023-06-19T18:24:09.541Z,50.57
2023-06-19T18:26:37.459Z,50.61
2023-06-19T18:29:05.498Z,50.94
2023-06-19T18:31:33.479Z,50.90
2023-06-19T18:34:03.260Z,51.06
2023-06-19T18:36:31.388Z,51.11
2023-06-19T18:38:59.466Z,50.62
2023-06-19T18:41:27.578Z,50.89
2023-06-19T18:43:55.743Z,50.82
2023-06-19T18:46:24.028Z,50.78
2023-06-19T18:48:52.253Z,50.94
2023-06-19T18:51:21.717Z,51.07
2023-06-19T18:53:50.209Z,51.62
2023-06-19T18:56:27.373Z,51.44
2023-06-19T18:58:55.387Z,51.61
2023-06-19T19:01:23.427Z,51.97
2023-06-19T19:03:51.701Z,52.22
2023-06-19T19:06:21.108Z,52.03
2023-06-19T19:08:49.292Z,52.39
2023-06-19T19:11:17.290Z,52.52
2023-06-19T19:13:45.424Z,52.68
2023-06-19T19:16:13.503Z,52.67
2023-06-19T19:18:41.760Z,52.52
2023-06-19T19:21:09.721Z,52.47
2023-06-19T19:23:39.240Z,52.74
2023-06-19T19:26:08.121Z,52.74
2023-06-19T19:28:36.437Z,52.58
2023-06-19T19:31:04.626Z,52.30
2023-06-19T19:33:32.643Z,52.14
2023-06-19T19:36:02.302Z,52.59
2023-06-19T19:38:30.349Z,53.20
2023-06-19T19:41:00.054Z,53.46
2023-06-19T19:43:28.315Z,53.83
2023-06-19T19:45:56.463Z,53.32
2023-06-19T19:48:24.466Z,53.46
2023-06-19T19:50:52.509Z,53.11
2023-06-19T19:53:20.458Z,53.42
2023-06-19T19:55:52.324Z,53.57
2023-06-19T19:58:22.908Z,54.01
2023-06-19T20:00:51.156Z,53.55
2023-06-19T20:03:19.321Z,53.52
2023-06-19T20:05:47.453Z,53.62
2023-06-19T20:08:15.479Z,53.77
2023-06-19T20:10:44.573Z,54.19
2023-06-19T20:13:53.343Z,54.47
2023-06-19T20:16:37.673Z,55.35
2023-06-19T20:19:17.331Z,55.43
2023-06-19T20:21:50.133Z,55.73
2023-06-19T20:24:23.700Z,56.88
2023-06-19T20:26:52.285Z,57.82
2023-06-19T20:29:25.032Z,57.69
2023-06-19T20:32:03.263Z,58.09
2023-06-19T20:34:36.072Z,57.24
2023-06-19T20:37:04.272Z,56.59
2023-06-19T20:39:40.116Z,56.07
2023-06-19T20:42:10.689Z,55.89
2023-06-19T20:44:41.298Z,55.62
2023-06-19T20:47:10.919Z,54.98
2023-06-19T20:49:38.918Z,54.86
2023-06-19T20:52:11.115Z,54.88
2023-06-19T20:54:41.133Z,55.63
2023-06-19T20:57:12.257Z,55.74
2023-06-19T20:59:40.224Z,55.72
2023-06-19T21:02:14.500Z,55.76
2023-06-19T21:04:47.171Z,55.95
2023-06-19T21:07:15.559Z,55.74
2023-06-19T21:09:47.922Z,55.72
2023-06-19T21:15:14.527Z,56.22
2023-06-19T21:18:16.827Z,56.47
2023-06-19T21:20:46.864Z,56.57
2023-06-19T21:23:18.840Z,56.35
2023-06-19T21:25:49.478Z,56.85
2023-06-19T21:28:34.214Z,57.14
2023-06-19T21:31:06.272Z,57.27
2023-06-19T21:33:35.733Z,57.90
2023-06-19T21:36:04.042Z,58.06
2023-06-19T21:38:39.934Z,58.25
2023-06-19T21:41:11.763Z,58.30
2023-06-19T21:43:39.782Z,58.73
2023-06-19T21:46:11.577Z,58.65
2023-06-19T21:51:55.200Z,58.25
2023-06-19T21:54:25.060Z,57.99
2023-06-19T21:56:54.818Z,57.86
2023-06-19T21:59:27.784Z,57.81
2023-06-19T22:02:00.196Z,58.15
2023-06-19T22:04:30.869Z,58.12
2023-06-19T22:10:00.304Z,58.30
2023-06-19T22:12:45.915Z,58.56
2023-06-19T22:15:18.243Z,58.33
2023-06-19T22:17:48.005Z,58.87
2023-06-19T22:20:32.762Z,58.31
2023-06-19T22:26:00.542Z,58.50
2023-06-19T22:28:39.899Z,58.53
2023-06-19T22:31:30.580Z,58.12
2023-06-19T22:34:11.855Z,58.77
2023-06-19T22:36:59.089Z,58.77
2023-06-19T22:39:33.775Z,58.10
2023-06-19T22:42:15.411Z,58.96
2023-06-19T22:45:00.361Z,58.94
2023-06-19T22:47:33.300Z,59.51
2023-06-19T22:50:12.100Z,59.52
2023-06-19T22:52:51.183Z,59.65
2023-06-19T22:55:30.168Z,59.12
2023-06-19T22:58:04.499Z,58.88
2023-06-19T23:00:48.036Z,59.47
2023-06-19T23:03:20.844Z,59.15
2023-06-19T23:06:26.792Z,59.49
2023-06-19T23:15:18.472Z,59.36
2023-06-19T23:18:10.524Z,59.81
2023-06-19T23:21:02.862Z,61.05
2023-06-19T23:23:51.100Z,61.21
2023-06-19T23:26:49.009Z,60.96
2023-06-19T23:29:43.789Z,61.27
2023-06-19T23:32:29.729Z,61.22
2023-06-19T23:41:50.437Z,60.53
2023-06-19T23:44:46.088Z,60.81
2023-06-19T23:47:30.977Z,60.60
2023-06-19T23:50:16.865Z,61.22
2023-06-19T23:53:10.272Z,62.00
2023-06-19T23:56:07.405Z,62.24
2023-06-19T23:58:58.022Z,62.48
